Time;durP1;ratioP1;P1;durP2;ratioP2;P2;SDS_P1;SDS_P2;PMS_P1;PMS_P2;Temp;Humidity;BMP_temperature;BMP_pressure;BME280_temperature;BME280_humidity;BME280_pressure;Samples;Min_cycle;Max_cycle;Signal;HPM_P1;HPM_P2
2022/09/23 00:00:28;;;;;;;2.67;1.15;;;5.80;99.90;;;;;;5093162;28;20028;-76
2022/09/23 00:02:53;;;;;;;2.35;1.50;;;5.80;99.90;;;;;;5092903;28;20023;-76
2022/09/23 00:05:19;;;;;;;3.85;1.30;;;5.80;99.90;;;;;;5094785;28;20016;-77
2022/09/23 00:07:45;;;;;;;2.60;1.33;;;5.70;99.90;;;;;;5096968;28;20024;-77
2022/09/23 00:10:11;;;;;;;3.20;1.63;;;5.70;99.90;;;;;;5096356;28;20384;-76
2022/09/23 00:12:36;;;;;;;2.40;1.50;;;5.70;99.90;;;;;;5096884;28;20073;-76
2022/09/23 00:15:03;;;;;;;2.85;1.52;;;5.70;99.90;;;;;;5096609;28;20028;-77
2022/09/23 00:17:32;;;;;;;2.53;1.35;;;5.60;99.90;;;;;;5096414;28;20035;-77
2022/09/23 00:19:58;;;;;;;2.83;1.13;;;5.60;99.90;;;;;;5096547;28;20024;-76
2022/09/23 00:22:23;;;;;;;2.50;1.48;;;5.60;99.90;;;;;;5096445;28;20017;-77
2022/09/23 00:24:49;;;;;;;1.83;1.15;;;5.60;99.90;;;;;;5096403;28;20032;-77
2022/09/23 00:27:15;;;;;;;2.25;1.20;;;5.50;99.90;;;;;;5096105;28;20032;-76
2022/09/23 00:29:40;;;;;;;4.05;1.40;;;5.50;99.90;;;;;;5096222;28;20032;-76
2022/09/23 00:32:06;;;;;;;3.03;1.25;;;5.50;99.90;;;;;;5096531;28;20127;-77
2022/09/23 00:34:32;;;;;;;2.40;1.42;;;5.40;99.90;;;;;;5096555;28;20032;-77
2022/09/23 00:36:58;;;;;;;2.72;1.48;;;5.40;99.90;;;;;;5096115;28;20028;-77
2022/09/23 00:39:24;;;;;;;2.05;1.40;;;5.30;99.90;;;;;;5096636;28;20529;-76
2022/09/23 00:41:51;;;;;;;2.50;1.38;;;5.30;99.90;;;;;;5095782;28;20484;-76
2022/09/23 00:44:38;;;;;;;3.25;1.60;;;5.30;99.90;;;;;;5096269;28;20058;-77
2022/09/23 00:47:10;;;;;;;2.40;1.63;;;5.30;99.90;;;;;;5096022;28;20027;-77
2022/09/23 00:49:36;;;;;;;2.45;1.50;;;5.20;99.90;;;;;;5096363;28;20024;-75
2022/09/23 00:52:10;;;;;;;2.25;1.38;;;5.20;99.90;;;;;;5096402;28;20471;-76
2022/09/23 00:54:36;;;;;;;4.07;1.52;;;5.20;99.90;;;;;;5095887;28;20027;-76
2022/09/23 00:57:04;;;;;;;2.58;1.45;;;5.20;99.90;;;;;;5095492;28;20093;-76
2022/09/23 00:59:30;;;;;;;2.83;1.67;;;5.10;99.90;;;;;;5095717;28;20491;-77
2022/09/23 01:01:58;;;;;;;2.63;1.40;;;5.10;99.90;;;;;;5095964;28;20034;-77
2022/09/23 01:04:26;;;;;;;3.40;1.55;;;5.10;99.90;;;;;;5095846;28;20066;-77
2022/09/23 01:06:51;;;;;;;4.05;1.42;;;5.10;99.90;;;;;;5096065;28;20466;-77
2022/09/23 01:09:18;;;;;;;3.08;1.63;;;5.00;99.90;;;;;;5095589;28;20123;-77
2022/09/23 01:12:13;;;;;;;2.67;1.38;;;5.00;99.90;;;;;;5095217;28;20037;-76
2022/09/23 01:14:51;;;;;;;2.85;1.35;;;5.00;99.90;;;;;;5095627;28;20032;-77
2022/09/23 01:17:54;;;;;;;3.75;1.80;;;4.90;99.90;;;;;;5095033;28;20472;-77
2022/09/23 01:20:32;;;;;;;2.58;1.30;;;4.90;99.90;;;;;;5095369;28;20038;-76
2022/09/23 01:23:06;;;;;;;3.13;1.40;;;4.80;99.90;;;;;;5095365;28;20470;-77
2022/09/23 01:26:06;;;;;;;3.80;1.55;;;4.80;99.90;;;;;;5095029;28;20024;-76
2022/09/23 01:28:40;;;;;;;3.63;1.60;;;4.70;99.90;;;;;;5095187;28;20441;-77
2022/09/23 01:31:16;;;;;;;2.30;1.33;;;4.70;99.90;;;;;;5095145;28;20027;-76
2022/09/23 01:33:54;;;;;;;2.85;1.63;;;4.70;99.90;;;;;;5077032;28;20024;-77
2022/09/23 01:36:49;;;;;;;5.35;1.35;;;4.70;99.90;;;;;;5094990;28;20438;-77
2022/09/23 01:39:35;;;;;;;1.50;1.00;;;4.70;99.90;;;;;;5084241;28;20035;-77
2022/09/23 01:42:16;;;;;;;1.83;1.15;;;4.70;99.90;;;;;;5094768;28;20496;-76
2022/09/23 01:44:46;;;;;;;1.98;1.30;;;4.70;99.90;;;;;;5095111;28;20028;-76
2022/09/23 01:47:19;;;;;;;2.97;1.30;;;4.60;99.90;;;;;;5095064;28;20030;-77
2022/09/23 01:50:55;;;;;;;2.17;1.20;;;4.60;99.90;;;;;;5094873;28;20030;-76
2022/09/23 01:52:58;;;;;;;3.33;1.55;;;4.50;99.90;;;;;;5094517;28;20020;-77
2022/09/23 01:55:30;;;;;;;4.15;1.70;;;4.30;99.90;;;;;;5094400;28;20020;-76
2022/09/23 01:58:02;;;;;;;2.78;1.50;;;4.30;99.90;;;;;;5094674;28;20024;-77
2022/09/23 02:00:33;;;;;;;3.65;1.20;;;4.30;99.90;;;;;;5094484;28;20023;-76
2022/09/23 02:03:03;;;;;;;2.13;1.20;;;4.30;99.90;;;;;;5094981;28;20054;-77
2022/09/23 02:05:33;;;;;;;2.70;1.30;;;4.30;99.90;;;;;;5094582;28;20436;-76
2022/09/23 02:08:03;;;;;;;2.08;1.17;;;4.30;99.90;;;;;;5094370;28;20020;-76
2022/09/23 02:10:32;;;;;;;4.20;1.77;;;4.30;99.90;;;;;;5094070;28;20016;-76
2022/09/23 02:13:04;;;;;;;5.13;1.40;;;4.30;99.90;;;;;;5094242;28;20020;-77
2022/09/23 02:15:40;;;;;;;4.43;1.48;;;4.30;99.90;;;;;;5075797;28;20032;-76
2022/09/23 02:18:16;;;;;;;3.58;1.73;;;4.20;99.90;;;;;;5094522;28;20023;-76
2022/09/23 02:20:42;;;;;;;3.85;1.73;;;4.20;99.90;;;;;;5094144;28;20378;-76
2022/09/23 02:23:18;;;;;;;3.95;1.85;;;4.20;99.90;;;;;;5094165;28;20103;-77
2022/09/23 02:25:53;;;;;;;3.15;1.30;;;4.20;99.90;;;;;;5093962;28;20480;-76
2022/09/23 02:28:31;;;;;;;2.50;1.58;;;4.20;99.90;;;;;;5093760;28;20020;-77
2022/09/23 02:31:10;;;;;;;3.00;1.30;;;4.20;99.90;;;;;;5093995;28;20031;-76
2022/09/23 02:33:42;;;;;;;3.67;1.38;;;4.10;99.90;;;;;;5094347;28;20023;-76
2022/09/23 02:36:16;;;;;;;2.55;1.25;;;4.10;99.90;;;;;;5094284;28;20020;-77
2022/09/23 02:38:50;;;;;;;4.68;1.40;;;4.10;99.90;;;;;;5094466;28;20035;-77
2022/09/23 02:41:36;;;;;;;2.22;1.38;;;4.10;99.90;;;;;;5093571;28;20020;-76
2022/09/23 02:44:15;;;;;;;2.35;1.40;;;4.10;99.90;;;;;;5076062;28;20487;-77
2022/09/23 02:46:42;;;;;;;4.28;1.30;;;4.10;99.90;;;;;;5094129;28;20072;-77
2022/09/23 02:49:20;;;;;;;1.77;1.20;;;4.00;99.90;;;;;;5093945;28;20024;-77
2022/09/23 02:51:45;;;;;;;4.25;1.58;;;4.00;99.90;;;;;;5053347;28;20036;-76
2022/09/23 02:54:19;;;;;;;2.30;1.35;;;4.00;99.90;;;;;;5053315;28;20029;-77
2022/09/23 02:56:47;;;;;;;5.43;1.52;;;4.00;99.90;;;;;;5053109;28;20028;-76
2022/09/23 02:59:12;;;;;;;1.90;1.20;;;4.00;99.90;;;;;;5053509;28;20473;-77
2022/09/23 03:01:57;;;;;;;2.50;1.70;;;3.90;99.90;;;;;;5035282;28;20025;-77
2022/09/23 03:04:34;;;;;;;3.60;1.40;;;3.90;99.90;;;;;;5053195;28;20021;-76
2022/09/23 03:07:17;;;;;;;3.00;1.83;;;3.90;99.90;;;;;;5035318;28;20159;-77
2022/09/23 03:09:53;;;;;;;4.95;2.30;;;3.90;99.90;;;;;;5053291;28;20113;-76
2022/09/23 03:12:40;;;;;;;11.52;4.00;;;3.90;99.90;;;;;;5052879;28;20025;-77
2022/09/23 03:15:20;;;;;;;7.97;3.88;;;3.90;99.90;;;;;;5053063;28;20062;-77
2022/09/23 03:18:08;;;;;;;10.18;4.43;;;3.80;99.90;;;;;;5053001;28;20048;-77
2022/09/23 03:20:37;;;;;;;8.65;3.70;;;3.90;99.90;;;;;;5073320;28;20059;-76
2022/09/23 03:23:07;;;;;;;10.02;4.28;;;3.80;99.90;;;;;;5093517;28;20372;-77
2022/09/23 03:25:37;;;;;;;13.07;5.47;;;3.80;99.90;;;;;;5093292;28;20031;-76
2022/09/23 03:28:05;;;;;;;18.27;6.53;;;3.70;99.90;;;;;;5093154;28;20024;-76
2022/09/23 03:30:34;;;;;;;15.90;7.47;;;3.70;99.90;;;;;;5093021;28;20020;-76
2022/09/23 03:33:03;;;;;;;15.40;6.95;;;3.70;99.90;;;;;;5093112;28;20477;-76
2022/09/23 03:36:48;;;;;;;10.63;5.10;;;3.70;99.90;;;;;;5093306;28;20060;-76
2022/09/23 03:38:19;;;;;;;7.95;4.50;;;3.70;99.90;;;;;;5093109;28;20035;-77
2022/09/23 03:40:49;;;;;;;11.10;5.07;;;3.70;99.90;;;;;;5097124;28;20024;-76
2022/09/23 03:43:15;;;;;;;6.93;4.15;;;3.60;99.90;;;;;;5097444;28;20028;-76
2022/09/23 03:45:41;;;;;;;5.65;3.13;;;3.60;99.90;;;;;;5097708;28;20051;-76
2022/09/23 03:48:07;;;;;;;6.07;2.95;;;3.60;99.90;;;;;;5078927;28;20492;-76
2022/09/23 03:50:34;;;;;;;6.53;3.47;;;3.50;99.90;;;;;;5096916;28;20028;-76
2022/09/23 03:53:00;;;;;;;7.57;4.35;;;3.50;99.90;;;;;;5078791;28;20507;-76
2022/09/23 03:55:26;;;;;;;9.77;4.30;;;3.50;99.90;;;;;;5096829;28;20032;-76
2022/09/23 03:57:52;;;;;;;10.63;4.40;;;3.50;99.90;;;;;;5094660;28;20036;-76
2022/09/23 04:00:18;;;;;;;5.43;3.17;;;3.50;99.90;;;;;;5077923;28;20027;-76
2022/09/23 04:02:44;;;;;;;4.85;2.15;;;3.50;99.90;;;;;;5057975;28;20028;-76
2022/09/23 04:05:11;;;;;;;3.58;1.63;;;3.50;99.90;;;;;;5076236;28;20383;-76
2022/09/23 04:07:37;;;;;;;3.55;2.33;;;3.40;99.90;;;;;;5076249;28;20384;-76
2022/09/23 04:10:04;;;;;;;6.65;2.00;;;3.40;99.90;;;;;;5075815;28;20043;-76
2022/09/23 04:12:29;;;;;;;3.22;1.70;;;3.40;99.90;;;;;;5075773;28;20431;-76
2022/09/23 04:14:55;;;;;;;3.50;1.83;;;3.40;99.90;;;;;;5041459;28;20064;-76
2022/09/23 04:17:21;;;;;;;3.05;1.77;;;3.40;99.90;;;;;;5058126;28;20032;-76
2022/09/23 04:19:46;;;;;;;11.60;7.35;;;3.40;99.90;;;;;;5074511;28;20028;-75
2022/09/23 04:22:12;;;;;;;15.93;9.63;;;3.30;99.90;;;;;;5075982;28;20028;-75
2022/09/23 04:24:38;;;;;;;18.33;10.93;;;3.20;99.90;;;;;;5075880;28;20467;-75
2022/09/23 04:27:04;;;;;;;18.50;10.20;;;3.20;99.90;;;;;;5075571;28;20082;-75
2022/09/23 04:29:30;;;;;;;9.57;5.20;;;3.10;99.90;;;;;;5075915;28;20107;-75
2022/09/23 04:31:56;;;;;;;14.02;7.45;;;3.10;99.90;;;;;;5075836;28;20456;-75
2022/09/23 04:34:22;;;;;;;8.50;3.90;;;3.20;99.90;;;;;;5057552;28;20060;-76
2022/09/23 04:36:49;;;;;;;3.80;1.90;;;3.20;99.90;;;;;;5075633;28;20056;-75
2022/09/23 04:39:15;;;;;;;4.55;1.60;;;3.20;99.90;;;;;;5075685;28;20498;-75
2022/09/23 04:41:42;;;;;;;2.90;1.70;;;3.10;99.90;;;;;;5075240;28;20040;-75
2022/09/23 04:44:08;;;;;;;3.70;1.50;;;3.10;99.90;;;;;;5075403;28;20027;-74
2022/09/23 04:46:34;;;;;;;2.90;1.92;;;3.10;99.90;;;;;;5075209;28;20033;-74
2022/09/23 04:48:59;;;;;;;4.28;2.35;;;3.10;99.90;;;;;;5073564;28;20031;-74
2022/09/23 04:51:27;;;;;;;4.07;1.70;;;3.00;99.90;;;;;;5072604;28;20041;-74
2022/09/23 04:53:54;;;;;;;4.88;1.67;;;3.00;99.90;;;;;;5073069;28;20033;-73
2022/09/23 04:56:22;;;;;;;3.38;1.88;;;3.10;99.90;;;;;;5055229;28;20024;-74
2022/09/23 04:58:49;;;;;;;2.63;1.63;;;3.10;99.90;;;;;;5075137;28;20024;-74
2022/09/23 05:01:25;;;;;;;4.07;1.90;;;3.10;99.90;;;;;;5075340;28;20426;-75
2022/09/23 05:03:53;;;;;;;4.07;1.70;;;3.10;99.90;;;;;;5075969;28;20025;-74
2022/09/23 05:06:19;;;;;;;6.55;3.90;;;3.10;99.90;;;;;;5075576;28;20024;-74
2022/09/23 05:08:48;;;;;;;15.80;8.68;;;3.10;99.90;;;;;;5076020;28;20392;-74
2022/09/23 05:11:14;;;;;;;23.60;13.57;;;3.10;99.90;;;;;;5074952;28;20024;-74
2022/09/23 05:13:40;;;;;;;19.65;12.40;;;3.00;99.90;;;;;;5075442;28;20029;-75
2022/09/23 05:16:09;;;;;;;10.57;6.30;;;2.90;99.90;;;;;;5074957;28;20114;-75
2022/09/23 05:18:36;;;;;;;11.15;7.05;;;2.90;99.90;;;;;;5075020;28;20020;-74
2022/09/23 05:21:02;;;;;;;8.45;5.10;;;2.80;99.90;;;;;;5088984;28;20488;-74
2022/09/23 05:23:28;;;;;;;4.90;3.03;;;2.70;99.90;;;;;;5095216;28;20036;-74
2022/09/23 05:26:02;;;;;;;8.27;4.45;;;2.60;99.90;;;;;;5095234;28;20127;-73
2022/09/23 05:28:31;;;;;;;7.07;4.07;;;2.50;99.90;;;;;;5095111;28;20025;-74
2022/09/23 05:31:08;;;;;;;5.93;4.35;;;2.50;99.90;;;;;;5094927;28;20480;-74
2022/09/23 05:33:35;;;;;;;4.50;2.55;;;2.50;99.90;;;;;;5095274;28;20555;-75
2022/09/23 05:36:02;;;;;;;3.20;2.30;;;2.50;99.90;;;;;;5095177;28;20038;-75
2022/09/23 05:38:29;;;;;;;3.50;2.33;;;2.50;99.90;;;;;;5095157;28;20025;-75
2022/09/23 05:40:56;;;;;;;4.10;2.47;;;2.50;99.90;;;;;;5094656;28;20028;-74
2022/09/23 05:43:23;;;;;;;4.00;2.70;;;2.50;99.90;;;;;;5094855;28;20032;-75
2022/09/23 05:45:48;;;;;;;4.03;2.35;;;2.60;99.90;;;;;;5095034;28;20020;-75
2022/09/23 05:48:14;;;;;;;5.22;1.92;;;2.60;99.90;;;;;;5094754;28;20428;-75
2022/09/23 05:50:48;;;;;;;3.22;2.05;;;2.60;99.90;;;;;;5094562;28;20561;-74
2022/09/23 05:53:14;;;;;;;3.83;1.98;;;2.60;99.90;;;;;;5076524;28;20114;-74
2022/09/23 05:55:40;;;;;;;3.53;2.05;;;2.70;99.90;;;;;;5094534;28;20056;-74
2022/09/23 05:58:05;;;;;;;3.60;2.00;;;2.70;99.90;;;;;;5094236;28;20028;-74
2022/09/23 06:00:31;;;;;;;7.35;2.15;;;2.80;99.90;;;;;;5094590;28;20032;-74
2022/09/23 06:02:56;;;;;;;3.75;2.60;;;2.80;99.90;;;;;;5093678;28;20020;-75
2022/09/23 06:05:22;;;;;;;3.17;1.90;;;2.90;99.90;;;;;;5094408;28;20024;-75
2022/09/23 06:07:48;;;;;;;3.30;2.00;;;2.90;99.90;;;;;;5094256;28;20034;-75
2022/09/23 06:10:13;;;;;;;5.75;2.30;;;3.00;99.90;;;;;;5094431;28;20024;-74
2022/09/23 06:12:41;;;;;;;4.57;2.55;;;3.10;99.90;;;;;;5094212;28;20028;-74
2022/09/23 06:15:07;;;;;;;4.68;2.05;;;3.10;99.90;;;;;;5094545;28;20028;-75
2022/09/23 06:17:32;;;;;;;4.75;2.40;;;3.10;99.90;;;;;;5094150;28;20111;-74
2022/09/23 06:19:58;;;;;;;2.97;2.10;;;3.20;99.90;;;;;;5093970;28;20451;-74
2022/09/23 06:22:24;;;;;;;4.78;2.47;;;3.30;99.90;;;;;;5094028;28;20028;-75
2022/09/23 06:24:50;;;;;;;4.30;2.33;;;3.30;99.90;;;;;;5094556;28;20051;-74
2022/09/23 06:27:15;;;;;;;4.57;2.35;;;3.30;99.90;;;;;;5075726;28;20052;-74
2022/09/23 06:29:41;;;;;;;4.30;2.45;;;3.40;99.90;;;;;;5093860;28;20051;-73
2022/09/23 06:32:06;;;;;;;4.32;2.50;;;3.50;99.90;;;;;;5093984;28;20024;-74
2022/09/23 06:34:32;;;;;;;6.40;2.83;;;3.60;99.90;;;;;;5093907;28;20035;-75
2022/09/23 06:36:58;;;;;;;6.55;3.00;;;3.70;99.90;;;;;;5093809;28;20028;-75
2022/09/23 06:39:24;;;;;;;6.63;3.38;;;3.80;99.90;;;;;;5094054;28;20024;-74
2022/09/23 06:41:50;;;;;;;7.60;3.42;;;3.80;99.90;;;;;;5075471;28;20032;-74
2022/09/23 06:44:15;;;;;;;5.65;3.08;;;3.90;99.90;;;;;;5093989;28;20024;-75
2022/09/23 06:46:41;;;;;;;5.68;3.45;;;4.00;99.90;;;;;;5093762;28;20056;-75
2022/09/23 06:49:07;;;;;;;6.35;3.40;;;4.10;99.90;;;;;;5093692;28;20036;-74
2022/09/23 06:51:33;;;;;;;7.90;4.13;;;4.10;99.90;;;;;;5093496;28;20505;-74
2022/09/23 06:53:59;;;;;;;6.68;3.60;;;4.20;99.90;;;;;;5093548;28;20024;-75
2022/09/23 06:56:24;;;;;;;5.18;3.13;;;4.30;99.90;;;;;;5093196;28;20545;-74
2022/09/23 06:58:53;;;;;;;6.68;3.38;;;4.40;99.90;;;;;;5093523;28;20028;-76
2022/09/23 07:01:19;;;;;;;8.13;2.78;;;4.50;99.90;;;;;;5093454;28;20434;-74
2022/09/23 07:03:49;;;;;;;5.75;2.92;;;4.60;99.90;;;;;;5093505;28;20020;-75
2022/09/23 07:06:14;;;;;;;4.97;2.38;;;4.70;99.90;;;;;;5093426;28;20035;-75
2022/09/23 07:08:43;;;;;;;7.75;2.67;;;4.80;99.90;;;;;;5093376;28;20392;-75
2022/09/23 07:11:11;;;;;;;7.25;2.75;;;4.80;99.90;;;;;;5093074;28;20439;-74
2022/09/23 07:13:38;;;;;;;4.93;2.78;;;5.00;99.90;;;;;;5074950;28;20032;-75
2022/09/23 07:16:04;;;;;;;4.38;2.42;;;5.10;99.90;;;;;;5093177;28;20036;-74
2022/09/23 07:18:32;;;;;;;4.75;2.88;;;5.20;99.90;;;;;;5093552;28;20028;-75
2022/09/23 07:21:14;;;;;;;4.20;2.72;;;5.30;99.90;;;;;;5093186;28;20027;-74
2022/09/23 07:23:44;;;;;;;3.70;2.35;;;5.40;99.90;;;;;;5093261;28;20472;-75
2022/09/23 07:26:11;;;;;;;3.47;2.65;;;5.50;99.90;;;;;;5093513;28;20028;-74
2022/09/23 07:28:38;;;;;;;4.28;2.70;;;5.60;99.90;;;;;;5093196;28;20028;-74
2022/09/23 07:31:06;;;;;;;3.78;2.63;;;5.70;99.90;;;;;;5093083;28;20083;-74
2022/09/23 07:33:33;;;;;;;4.60;2.75;;;5.80;99.90;;;;;;5093137;28;20103;-75
2022/09/23 07:36:08;;;;;;;4.72;2.53;;;6.00;99.90;;;;;;5093581;28;20024;-75
2022/09/23 07:38:35;;;;;;;4.18;2.78;;;6.10;99.90;;;;;;5074942;28;20094;-75
2022/09/23 07:41:06;;;;;;;6.93;3.33;;;6.20;99.90;;;;;;5074920;28;20020;-75
2022/09/23 07:43:32;;;;;;;4.78;2.95;;;6.40;99.90;;;;;;5074588;28;20024;-74
2022/09/23 07:46:05;;;;;;;7.22;3.08;;;6.40;99.90;;;;;;5093288;28;20028;-75
2022/09/23 07:48:31;;;;;;;4.22;2.72;;;6.50;99.90;;;;;;5093570;28;20460;-75
2022/09/23 07:50:59;;;;;;;7.43;3.33;;;6.70;99.90;;;;;;5092907;28;20043;-75
2022/09/23 07:53:25;;;;;;;5.50;3.10;;;6.80;99.90;;;;;;5093011;28;20024;-76
2022/09/23 07:55:55;;;;;;;3.55;2.60;;;6.90;99.90;;;;;;5092861;28;20111;-75
2022/09/23 07:58:22;;;;;;;4.55;2.72;;;7.10;99.90;;;;;;5074566;28;20484;-75
2022/09/23 08:00:50;;;;;;;5.05;3.05;;;7.20;99.90;;;;;;5092799;28;20373;-75
2022/09/23 08:03:15;;;;;;;4.88;3.15;;;7.40;99.90;;;;;;5093148;28;20020;-75
2022/09/23 08:05:41;;;;;;;5.97;2.80;;;7.60;99.90;;;;;;5092870;28;20044;-76
2022/09/23 08:08:08;;;;;;;4.43;2.72;;;7.70;99.90;;;;;;5093119;28;20479;-75
2022/09/23 08:10:34;;;;;;;5.03;3.40;;;7.90;99.90;;;;;;5092671;28;20129;-75
2022/09/23 08:13:02;;;;;;;4.57;2.92;;;8.00;99.90;;;;;;5092612;28;20483;-75
2022/09/23 08:15:29;;;;;;;5.70;3.13;;;8.20;99.90;;;;;;5092689;28;20081;-75
2022/09/23 08:17:58;;;;;;;6.65;2.90;;;8.30;99.90;;;;;;5092655;28;20081;-75
2022/09/23 08:23:09;;;;;;;4.05;2.58;;;8.60;99.90;;;;;;5092999;28;20090;-76
2022/09/23 08:25:35;;;;;;;4.60;2.45;;;8.70;99.90;;;;;;5093310;28;20024;-76
2022/09/23 08:28:01;;;;;;;4.53;2.10;;;8.80;99.90;;;;;;5077957;28;20028;-75
2022/09/23 08:30:27;;;;;;;4.63;2.22;;;8.90;99.90;;;;;;5078206;28;20028;-75
2022/09/23 08:32:52;;;;;;;5.47;2.78;;;9.10;99.90;;;;;;5096524;28;20020;-75
2022/09/23 08:35:19;;;;;;;4.82;2.70;;;9.10;99.90;;;;;;5096694;28;20032;-76
2022/09/23 08:37:44;;;;;;;4.47;2.63;;;9.30;99.90;;;;;;5096348;28;20024;-75
2022/09/23 08:40:10;;;;;;;4.75;2.45;;;9.30;99.90;;;;;;5096208;28;20073;-75
2022/09/23 08:42:38;;;;;;;6.35;2.70;;;9.50;99.90;;;;;;5096071;28;20105;-75
2022/09/23 08:45:06;;;;;;;2.42;1.83;;;9.70;99.90;;;;;;5095914;28;20120;-75
2022/09/23 08:48:00;;;;;;;3.47;2.05;;;9.80;99.90;;;;;;5096199;28;20024;-76
2022/09/23 08:50:44;;;;;;;4.38;2.13;;;9.90;99.90;;;;;;5095782;28;20028;-75
2022/09/23 08:53:48;;;;;;;3.55;2.15;;;10.10;99.90;;;;;;5095881;28;20108;-76
2022/09/23 08:56:16;;;;;;;4.78;2.05;;;10.40;99.90;;;;;;4997576;28;20034;-76
2022/09/23 08:59:01;;;;;;;5.00;2.40;;;10.50;99.90;;;;;;5013557;28;20097;-75
2022/09/23 09:01:53;;;;;;;3.03;1.90;;;10.60;99.90;;;;;;5064040;28;20036;-76
2022/09/23 09:04:26;;;;;;;2.92;1.58;;;10.80;99.90;;;;;;5092148;28;20105;-76
2022/09/23 09:06:58;;;;;;;2.75;1.55;;;10.90;99.90;;;;;;5095589;28;20471;-76
2022/09/23 09:09:38;;;;;;;4.07;1.55;;;11.00;99.90;;;;;;5095880;28;20054;-76
2022/09/23 09:12:32;;;;;;;3.08;1.80;;;11.20;99.90;;;;;;5095518;28;20050;-75
2022/09/23 09:15:05;;;;;;;2.65;1.50;;;11.30;99.90;;;;;;5095563;28;20051;-75
2022/09/23 09:17:35;;;;;;;2.78;1.92;;;11.40;99.90;;;;;;5095309;28;20023;-75
2022/09/23 09:20:04;;;;;;;3.55;1.77;;;11.60;99.90;;;;;;5095406;28;20024;-75
2022/09/23 09:22:47;;;;;;;3.53;1.48;;;11.70;99.90;;;;;;5095304;28;20572;-76
2022/09/23 09:25:22;;;;;;;3.38;1.50;;;11.80;99.90;;;;;;5095186;28;20468;-75
2022/09/23 09:27:48;;;;;;;2.33;1.35;;;12.00;99.90;;;;;;5094945;28;20016;-75
2022/09/23 09:30:16;;;;;;;7.32;1.80;;;12.10;99.90;;;;;;5095065;28;20032;-76
2022/09/23 09:32:57;;;;;;;3.15;1.67;;;12.20;99.90;;;;;;5095616;28;20046;-76
2022/09/23 09:35:40;;;;;;;4.85;1.90;;;12.30;99.90;;;;;;5095055;28;20032;-75
2022/09/23 09:38:06;;;;;;;2.72;1.80;;;12.40;99.90;;;;;;5076700;28;20028;-75
2022/09/23 09:40:33;;;;;;;3.10;1.80;;;12.60;99.90;;;;;;5094873;28;20073;-74
2022/09/23 09:43:00;;;;;;;5.13;1.80;;;12.70;99.40;;;;;;5094777;28;20476;-75
2022/09/23 09:46:00;;;;;;;3.85;1.90;;;12.80;99.10;;;;;;5095377;28;20058;-73
2022/09/23 09:48:38;;;;;;;4.05;1.70;;;12.90;99.30;;;;;;5095334;28;20372;-73
2022/09/23 09:51:26;;;;;;;3.42;1.92;;;13.00;99.90;;;;;;5094739;28;20016;-73
2022/09/23 09:53:54;;;;;;;7.00;1.70;;;13.20;99.90;;;;;;5094972;28;20016;-74
2022/09/23 09:56:34;;;;;;;5.57;1.40;;;13.30;98.30;;;;;;5076637;28;20027;-74
2022/09/23 09:59:11;;;;;;;2.45;1.25;;;13.50;97.90;;;;;;5094421;28;20021;-74
2022/09/23 10:01:37;;;;;;;3.50;1.52;;;13.60;97.80;;;;;;5094783;28;20048;-74
2022/09/23 10:04:16;;;;;;;3.45;1.60;;;13.70;96.80;;;;;;5094758;28;20066;-73
2022/09/23 10:06:41;;;;;;;4.70;1.70;;;13.90;96.10;;;;;;5094771;28;20024;-74
2022/09/23 10:09:07;;;;;;;6.18;1.52;;;14.00;96.50;;;;;;5094420;28;20415;-74
2022/09/23 10:11:33;;;;;;;3.25;1.80;;;14.00;96.10;;;;;;5094286;28;20024;-74
2022/09/23 10:14:01;;;;;;;2.05;1.23;;;14.20;96.80;;;;;;5093986;28;20506;-74
2022/09/23 10:16:30;;;;;;;2.83;1.50;;;14.20;93.80;;;;;;5094474;28;20032;-74
2022/09/23 10:18:58;;;;;;;3.28;1.50;;;14.30;93.30;;;;;;5094206;28;20035;-74
2022/09/23 10:21:32;;;;;;;2.00;1.10;;;14.40;93.00;;;;;;5093977;28;20491;-74
2022/09/23 10:23:59;;;;;;;2.20;1.17;;;14.40;93.90;;;;;;5094111;28;20021;-74
2022/09/23 10:26:31;;;;;;;2.55;1.27;;;14.60;92.70;;;;;;5094102;28;20028;-73
2022/09/23 10:28:59;;;;;;;2.40;1.08;;;14.70;90.20;;;;;;5093853;28;20035;-73
2022/09/23 10:31:34;;;;;;;2.10;1.27;;;14.80;90.00;;;;;;5093899;28;20028;-74
2022/09/23 10:34:26;;;;;;;2.50;1.00;;;14.90;92.20;;;;;;5094211;28;20106;-73
2022/09/23 10:37:02;;;;;;;2.00;1.15;;;15.00;91.50;;;;;;5093851;28;20051;-73
2022/09/23 10:48:13;;;;;;;2.92;1.10;;;15.60;90.90;;;;;;5093356;28;20081;-74
2022/09/23 10:50:52;;;;;;;2.17;1.08;;;15.80;90.20;;;;;;5082596;28;20021;-74
2022/09/23 10:53:46;;;;;;;1.90;1.05;;;15.90;85.90;;;;;;5073466;28;20021;-73
2022/09/23 10:56:39;;;;;;;2.97;1.30;;;16.10;87.20;;;;;;5073352;28;20056;-73
2022/09/23 10:59:05;;;;;;;2.00;1.27;;;16.20;88.40;;;;;;5073163;28;20027;-73
2022/09/23 11:01:41;;;;;;;2.38;1.08;;;16.30;88.90;;;;;;5073261;28;20025;-73
2022/09/23 11:04:22;;;;;;;3.75;1.10;;;16.40;87.90;;;;;;5073620;28;20098;-74
2022/09/23 11:07:18;;;;;;;2.20;1.15;;;16.50;86.80;;;;;;5055559;28;20379;-73
2022/09/23 11:09:50;;;;;;;2.75;1.20;;;16.50;85.70;;;;;;5073483;28;20021;-73
2022/09/23 11:12:26;;;;;;;3.63;1.17;;;16.60;80.80;;;;;;5072949;28;20031;-73
2022/09/23 11:15:17;;;;;;;3.47;1.17;;;16.60;81.00;;;;;;5073257;28;20441;-74
2022/09/23 11:18:04;;;;;;;2.13;0.95;;;16.70;80.40;;;;;;5073051;28;20098;-73
2022/09/23 11:20:34;;;;;;;4.70;1.27;;;16.70;78.10;;;;;;5082811;28;20111;-73
2022/09/23 11:23:25;;;;;;;2.28;0.90;;;16.90;81.10;;;;;;5093548;28;20020;-73
2022/09/23 11:25:50;;;;;;;1.65;1.02;;;17.00;80.20;;;;;;5075229;28;20028;-72
2022/09/23 11:28:39;;;;;;;2.92;1.10;;;17.10;76.80;;;;;;5092957;28;20066;-73
2022/09/23 11:31:26;;;;;;;2.33;0.95;;;17.10;74.30;;;;;;5093137;28;20093;-73
2022/09/23 11:34:17;;;;;;;2.17;1.05;;;17.10;75.50;;;;;;5093648;28;20024;-73
2022/09/23 11:36:48;;;;;;;4.85;1.27;;;17.30;76.70;;;;;;5093012;28;20507;-73
2022/09/23 11:39:19;;;;;;;2.97;1.00;;;17.50;75.40;;;;;;5093141;28;20099;-73
2022/09/23 11:41:45;;;;;;;3.38;1.05;;;17.60;76.20;;;;;;5093078;28;20020;-73
2022/09/23 11:44:21;;;;;;;4.07;1.10;;;17.80;71.60;;;;;;5092717;28;20036;-72
2022/09/23 11:47:03;;;;;;;8.00;1.23;;;18.00;71.00;;;;;;5093601;28;20050;-72
2022/09/23 11:49:39;;;;;;;1.92;0.90;;;18.10;73.80;;;;;;5092924;28;20020;-72
2022/09/23 11:52:20;;;;;;;1.15;0.75;;;18.20;69.40;;;;;;5074907;28;20032;-72
2022/09/23 11:55:07;;;;;;;1.75;0.98;;;18.10;67.10;;;;;;5093291;28;20020;-73
2022/09/23 11:57:50;;;;;;;4.47;1.17;;;18.10;72.90;;;;;;5092660;28;20027;-73
2022/09/23 12:00:18;;;;;;;2.55;1.08;;;18.30;71.60;;;;;;5093571;28;20021;-73
2022/09/23 12:03:14;;;;;;;2.20;1.10;;;18.30;75.10;;;;;;5097100;28;20027;-73
2022/09/23 12:06:08;;;;;;;3.28;0.98;;;18.40;76.70;;;;;;5097427;28;20073;-73
2022/09/23 12:08:38;;;;;;;2.58;1.17;;;18.40;75.40;;;;;;5097036;28;20031;-73
2022/09/23 12:11:06;;;;;;;3.10;1.13;;;18.60;75.60;;;;;;5096862;28;20020;-72
2022/09/23 12:13:54;;;;;;;2.38;1.10;;;18.60;74.90;;;;;;5096528;28;20039;-72
2022/09/23 12:16:28;;;;;;;2.50;1.10;;;18.50;75.40;;;;;;5096521;28;20031;-69
2022/09/23 12:19:17;;;;;;;1.58;0.90;;;18.50;72.90;;;;;;5096624;28;20028;-72
2022/09/23 12:21:51;;;;;;;4.03;1.30;;;18.50;75.90;;;;;;5096425;28;20475;-72
2022/09/23 12:24:58;;;;;;;4.15;1.23;;;18.60;75.30;;;;;;5096750;28;20107;-73
2022/09/23 12:27:28;;;;;;;2.00;1.05;;;18.70;75.00;;;;;;5096631;28;20024;-72
2022/09/23 12:30:01;;;;;;;3.97;1.23;;;18.80;75.20;;;;;;5096349;28;20031;-72
2022/09/23 12:32:27;;;;;;;2.88;1.20;;;18.80;76.20;;;;;;5096517;28;20375;-72
2022/09/23 12:34:53;;;;;;;2.13;1.15;;;18.90;76.10;;;;;;5096263;28;20472;-72
2022/09/23 12:37:26;;;;;;;1.70;0.80;;;18.90;73.50;;;;;;5096050;28;20059;-72
2022/09/23 12:39:53;;;;;;;5.20;1.10;;;18.80;73.70;;;;;;5096865;28;20016;-72
2022/09/23 12:42:22;;;;;;;4.43;0.98;;;18.90;75.00;;;;;;5095845;28;20027;-72
2022/09/23 12:44:48;;;;;;;3.05;1.00;;;18.90;74.90;;;;;;5077868;28;20031;-72
2022/09/23 12:47:13;;;;;;;7.47;1.30;;;19.00;74.80;;;;;;5096056;28;20032;-69
2022/09/23 12:49:40;;;;;;;2.97;1.30;;;19.20;72.60;;;;;;5095863;28;20028;-72
2022/09/23 12:52:15;;;;;;;3.65;1.15;;;19.30;74.30;;;;;;5077923;28;20032;-72
2022/09/23 12:55:20;;;;;;;2.90;1.10;;;19.40;74.10;;;;;;5095854;28;20069;-72
2022/09/23 12:57:47;;;;;;;2.75;1.20;;;19.50;73.50;;;;;;5095388;28;20028;-72
2022/09/23 13:00:13;;;;;;;4.18;1.33;;;19.60;73.40;;;;;;5095662;28;20028;-69
2022/09/23 13:08:23;;;;;;;2.55;1.17;;;19.80;73.20;;;;;;5096154;28;20447;-71
2022/09/23 13:10:59;;;;;;;1.80;1.23;;;19.90;71.70;;;;;;5095296;28;20032;-69
2022/09/23 13:13:30;;;;;;;3.45;1.13;;;19.90;69.50;;;;;;5076874;28;20534;-71
2022/09/23 13:16:13;;;;;;;4.45;1.63;;;19.90;69.50;;;;;;5095355;28;20455;-71
2022/09/23 13:18:53;;;;;;;5.15;1.40;;;19.90;67.30;;;;;;5095713;28;20024;-70
2022/09/23 13:21:41;;;;;;;4.47;1.45;;;19.90;67.30;;;;;;5095244;28;20430;-71
2022/09/23 13:24:21;;;;;;;3.05;1.30;;;19.90;64.40;;;;;;5095476;28;20081;-72
2022/09/23 13:26:52;;;;;;;1.77;1.00;;;19.90;66.20;;;;;;5095302;28;20027;-71
2022/09/23 13:29:22;;;;;;;;;;;19.80;67.20;;;;;;5095433;28;20082;-69
2022/09/23 13:31:48;;;;;;;4.13;1.55;;;19.90;70.10;;;;;;5095052;28;19904;-71
2022/09/23 13:34:17;;;;;;;4.97;2.28;;;19.80;67.90;;;;;;5095105;28;20055;-72